sensor_id;sensor_type;location;lat;lon;timestamp;pressure;altitude;pressure_sealevel;temperature;humidity
75460;BME280;64039;53.060;9.342;2024-01-15T00:00:38;99161.53;;;-0.06;100.00
75460;BME280;64039;53.060;9.342;2024-01-15T00:03:04;99167.03;;;0.05;100.00
75460;BME280;64039;53.060;9.342;2024-01-15T00:05:29;99155.19;;;0.07;100.00
75460;BME280;64039;53.060;9.342;2024-01-15T00:07:55;99160.50;;;0.13;100.00
75460;BME280;64039;53.060;9.342;2024-01-15T00:10:20;99146.13;;;0.17;100.00
75460;BME280;64039;53.060;9.342;2024-01-15T00:12:46;99146.13;;;0.17;100.00
75460;BME280;64039;53.060;9.342;2024-01-15T00:15:11;99133.31;;;0.15;100.00
75460;BME280;64039;53.060;9.342;2024-01-15T00:17:36;99122.31;;;0.18;100.00
75460;BME280;64039;53.060;9.342;2024-01-15T00:20:02;99123.66;;;0.08;100.00
75460;BME280;64039;53.060;9.342;2024-01-15T00:22:29;99117.63;;;0.06;100.00
75460;BME280;64039;53.060;9.342;2024-01-15T00:24:54;99110.00;;;0.08;100.00
75460;BME280;64039;53.060;9.342;2024-01-15T00:27:20;99125.34;;;0.08;100.00
75460;BME280;64039;53.060;9.342;2024-01-15T00:29:45;99121.75;;;0.03;100.00
75460;BME280;64039;53.060;9.342;2024-01-15T00:32:11;99114.72;;;-0.03;100.00
75460;BME280;64039;53.060;9.342;2024-01-15T00:34:36;99113.47;;;0.10;100.00
75460;BME280;64039;53.060;9.342;2024-01-15T00:37:01;99105.09;;;0.14;100.00
75460;BME280;64039;53.060;9.342;2024-01-15T00:39:28;99108.69;;;0.19;100.00
75460;BME280;64039;53.060;9.342;2024-01-15T00:41:53;99108.56;;;0.16;100.00
75460;BME280;64039;53.060;9.342;2024-01-15T00:44:18;99105.09;;;0.14;100.00
75460;BME280;64039;53.060;9.342;2024-01-15T00:46:45;99114.50;;;0.15;100.00
75460;BME280;64039;53.060;9.342;2024-01-15T00:49:14;99101.00;;;0.19;100.00
75460;BME280;64039;53.060;9.342;2024-01-15T00:51:39;99103.63;;;0.21;100.00
75460;BME280;64039;53.060;9.342;2024-01-15T00:54:05;99092.53;;;0.20;100.00
75460;BME280;64039;53.060;9.342;2024-01-15T00:56:31;99096.75;;;0.20;100.00
75460;BME280;64039;53.060;9.342;2024-01-15T00:58:56;99087.41;;;0.20;100.00
75460;BME280;64039;53.060;9.342;2024-01-15T01:01:22;99090.38;;;0.33;100.00
75460;BME280;64039;53.060;9.342;2024-01-15T01:03:47;99090.34;;;0.31;100.00
75460;BME280;64039;53.060;9.342;2024-01-15T01:06:12;99075.84;;;0.31;100.00
75460;BME280;64039;53.060;9.342;2024-01-15T01:08:38;99084.56;;;0.37;100.00
75460;BME280;64039;53.060;9.342;2024-01-15T01:11:04;99085.44;;;0.39;100.00
75460;BME280;64039;53.060;9.342;2024-01-15T01:13:29;99078.50;;;0.35;100.00
75460;BME280;64039;53.060;9.342;2024-01-15T01:15:55;99073.50;;;0.38;100.00
75460;BME280;64039;53.060;9.342;2024-01-15T01:18:20;99073.38;;;0.35;100.00
75460;BME280;64039;53.060;9.342;2024-01-15T01:20:46;99066.69;;;0.38;100.00
75460;BME280;64039;53.060;9.342;2024-01-15T01:23:12;99061.41;;;0.34;100.00
75460;BME280;64039;53.060;9.342;2024-01-15T01:25:37;99053.84;;;0.37;100.00
75460;BME280;64039;53.060;9.342;2024-01-15T01:28:03;99059.53;;;0.29;100.00
75460;BME280;64039;53.060;9.342;2024-01-15T01:30:28;99068.78;;;0.50;100.00
75460;BME280;64039;53.060;9.342;2024-01-15T01:32:53;99044.66;;;0.43;100.00
75460;BME280;64039;53.060;9.342;2024-01-15T01:35:19;99059.00;;;0.38;100.00
75460;BME280;64039;53.060;9.342;2024-01-15T01:37:44;99051.59;;;0.46;100.00
75460;BME280;64039;53.060;9.342;2024-01-15T01:40:10;99058.38;;;0.45;100.00
75460;BME280;64039;53.060;9.342;2024-01-15T01:42:35;99072.66;;;0.39;100.00
75460;BME280;64039;53.060;9.342;2024-01-15T01:45:02;99062.22;;;0.33;100.00
75460;BME280;64039;53.060;9.342;2024-01-15T01:47:29;99062.25;;;0.34;100.00
75460;BME280;64039;53.060;9.342;2024-01-15T01:49:54;99054.81;;;0.40;100.00
75460;BME280;64039;53.060;9.342;2024-01-15T01:52:20;99053.84;;;0.37;100.00
75460;BME280;64039;53.060;9.342;2024-01-15T01:54:45;99056.59;;;0.43;100.00
75460;BME280;64039;53.060;9.342;2024-01-15T01:57:12;99048.03;;;0.42;100.00
75460;BME280;64039;53.060;9.342;2024-01-15T01:59:38;99065.13;;;0.43;100.00
75460;BME280;64039;53.060;9.342;2024-01-15T02:02:04;99052.41;;;0.45;100.00
75460;BME280;64039;53.060;9.342;2024-01-15T02:04:31;99063.34;;;0.41;100.00
75460;BME280;64039;53.060;9.342;2024-01-15T02:06:59;99035.69;;;0.30;100.00
75460;BME280;64039;53.060;9.342;2024-01-15T02:09:24;99038.38;;;0.34;100.00
75460;BME280;64039;53.060;9.342;2024-01-15T02:11:50;99013.72;;;0.36;100.00
75460;BME280;64039;53.060;9.342;2024-01-15T02:14:16;99046.75;;;0.29;100.00
75460;BME280;64039;53.060;9.342;2024-01-15T02:16:41;99040.81;;;0.30;100.00
75460;BME280;64039;53.060;9.342;2024-01-15T02:19:07;99046.97;;;0.36;100.00
75460;BME280;64039;53.060;9.342;2024-01-15T02:21:32;99027.66;;;0.45;100.00
75460;BME280;64039;53.060;9.342;2024-01-15T02:23:58;99040.63;;;0.50;100.00
75460;BME280;64039;53.060;9.342;2024-01-15T02:26:23;99029.25;;;0.42;100.00
75460;BME280;64039;53.060;9.342;2024-01-15T02:28:50;99018.25;;;0.44;100.00
75460;BME280;64039;53.060;9.342;2024-01-15T02:31:16;99029.25;;;0.42;100.00
75460;BME280;64039;53.060;9.342;2024-01-15T02:33:42;99002.59;;;0.35;100.00
75460;BME280;64039;53.060;9.342;2024-01-15T02:36:08;99004.19;;;0.31;100.00
75460;BME280;64039;53.060;9.342;2024-01-15T02:38:33;99021.28;;;0.33;100.00
75460;BME280;64039;53.060;9.342;2024-01-15T02:40:58;99013.63;;;0.34;100.00
75460;BME280;64039;53.060;9.342;2024-01-15T02:43:24;99024.88;;;0.38;100.00
75460;BME280;64039;53.060;9.342;2024-01-15T02:45:49;99037.56;;;0.35;100.00
75460;BME280;64039;53.060;9.342;2024-01-15T02:48:15;99028.25;;;0.37;100.00
75460;BME280;64039;53.060;9.342;2024-01-15T02:50:40;99014.88;;;0.45;100.00
75460;BME280;64039;53.060;9.342;2024-01-15T02:53:06;99033.59;;;0.44;100.00
75460;BME280;64039;53.060;9.342;2024-01-15T02:55:31;99032.59;;;0.39;100.00
75460;BME280;64039;53.060;9.342;2024-01-15T02:57:57;99030.00;;;0.38;100.00
75460;BME280;64039;53.060;9.342;2024-01-15T03:00:22;99035.69;;;0.30;100.00
75460;BME280;64039;53.060;9.342;2024-01-15T03:02:50;99030.00;;;0.38;100.00
75460;BME280;64039;53.060;9.342;2024-01-15T03:05:15;99055.66;;;0.41;100.00
75460;BME280;64039;53.060;9.342;2024-01-15T03:07:41;99057.22;;;0.36;100.00
75460;BME280;64039;53.060;9.342;2024-01-15T03:10:07;99056.41;;;0.37;100.00
75460;BME280;64039;53.060;9.342;2024-01-15T03:12:33;99059.88;;;0.39;100.00
75460;BME280;64039;53.060;9.342;2024-01-15T03:14:58;99055.47;;;0.35;100.00
75460;BME280;64039;53.060;9.342;2024-01-15T03:17:23;99061.38;;;0.32;100.00
75460;BME280;64039;53.060;9.342;2024-01-15T03:19:49;99055.50;;;0.36;100.00
75460;BME280;64039;53.060;9.342;2024-01-15T03:22:17;99044.28;;;0.31;100.00
75460;BME280;64039;53.060;9.342;2024-01-15T03:24:43;99040.22;;;0.38;100.00
75460;BME280;64039;53.060;9.342;2024-01-15T03:27:09;99047.59;;;0.28;100.00
75460;BME280;64039;53.060;9.342;2024-01-15T03:29:34;99034.13;;;0.34;100.00
75460;BME280;64039;53.060;9.342;2024-01-15T03:32:00;99040.06;;;0.33;100.00
75460;BME280;64039;53.060;9.342;2024-01-15T03:34:25;99045.84;;;0.27;100.00
75460;BME280;64039;53.060;9.342;2024-01-15T03:36:50;99043.22;;;0.26;100.00
75460;BME280;64039;53.060;9.342;2024-01-15T03:39:16;99042.09;;;0.18;100.00
75460;BME280;64039;53.060;9.342;2024-01-15T03:41:41;99046.50;;;0.22;100.00
75460;BME280;64039;53.060;9.342;2024-01-15T03:44:07;99037.59;;;0.10;100.00
75460;BME280;64039;53.060;9.342;2024-01-15T03:46:32;99043.59;;;0.11;100.00
75460;BME280;64039;53.060;9.342;2024-01-15T03:48:57;99037.81;;;0.17;100.00
75460;BME280;64039;53.060;9.342;2024-01-15T03:51:23;99032.47;;;0.10;100.00
75460;BME280;64039;53.060;9.342;2024-01-15T03:53:49;99038.63;;;0.15;100.00
75460;BME280;64039;53.060;9.342;2024-01-15T03:56:14;99040.22;;;0.12;100.00
75460;BME280;64039;53.060;9.342;2024-01-15T03:58:39;99046.22;;;0.14;100.00
75460;BME280;64039;53.060;9.342;2024-01-15T04:01:09;99046.38;;;0.19;100.00
75460;BME280;64039;53.060;9.342;2024-01-15T04:03:35;99036.31;;;0.23;100.00
75460;BME280;64039;53.060;9.342;2024-01-15T04:06:00;99055.16;;;0.25;100.00
75460;BME280;64039;53.060;9.342;2024-01-15T04:08:26;99058.50;;;0.23;100.00
75460;BME280;64039;53.060;9.342;2024-01-15T04:10:51;99061.38;;;0.32;100.00
75460;BME280;64039;53.060;9.342;2024-01-15T04:13:17;99069.66;;;0.25;100.00
75460;BME280;64039;53.060;9.342;2024-01-15T04:15:42;99048.41;;;0.27;100.00
75460;BME280;64039;53.060;9.342;2024-01-15T04:18:08;99059.03;;;0.14;100.00
75460;BME280;64039;53.060;9.342;2024-01-15T04:20:33;99044.34;;;0.08;100.00
75460;BME280;64039;53.060;9.342;2024-01-15T04:22:59;99038.13;;;0.00;100.00
75460;BME280;64039;53.060;9.342;2024-01-15T04:25:24;99038.31;;;0.06;100.00
75460;BME280;64039;53.060;9.342;2024-01-15T04:27:49;99037.06;;;-0.05;100.00
75460;BME280;64039;53.060;9.342;2024-01-15T04:30:15;99041.53;;;0.01;100.00
75460;BME280;64039;53.060;9.342;2024-01-15T04:32:40;99037.44;;;0.06;100.00
75460;BME280;64039;53.060;9.342;2024-01-15T04:35:06;99047.78;;;0.09;100.00
75460;BME280;64039;53.060;9.342;2024-01-15T04:37:32;99034.81;;;0.04;100.00
75460;BME280;64039;53.060;9.342;2024-01-15T04:39:57;99059.91;;;0.14;100.00
75460;BME280;64039;53.060;9.342;2024-01-15T04:42:23;99060.78;;;0.15;100.00
75460;BME280;64039;53.060;9.342;2024-01-15T04:44:48;99068.81;;;0.26;100.00
75460;BME280;64039;53.060;9.342;2024-01-15T04:47:14;99061.06;;;0.23;100.00
75460;BME280;64039;53.060;9.342;2024-01-15T04:49:39;99047.75;;;0.33;100.00
75460;BME280;64039;53.060;9.342;2024-01-15T04:52:04;99050.09;;;0.27;100.00
75460;BME280;64039;53.060;9.342;2024-01-15T04:54:30;99050.00;;;0.24;100.00
75460;BME280;64039;53.060;9.342;2024-01-15T04:56:55;99040.50;;;0.21;100.00
75460;BME280;64039;53.060;9.342;2024-01-15T04:59:21;99050.75;;;0.21;100.00
75460;BME280;64039;53.060;9.342;2024-01-15T05:01:46;99051.00;;;0.29;100.00
75460;BME280;64039;53.060;9.342;2024-01-15T05:04:12;99045.09;;;0.30;100.00
75460;BME280;64039;53.060;9.342;2024-01-15T05:06:38;99050.91;;;0.26;100.00
75460;BME280;64039;53.060;9.342;2024-01-15T05:09:03;99042.38;;;0.25;100.00
75460;BME280;64039;53.060;9.342;2024-01-15T05:11:29;99036.44;;;0.26;100.00
75460;BME280;64039;53.060;9.342;2024-01-15T05:13:55;99036.28;;;0.22;100.00
75460;BME280;64039;53.060;9.342;2024-01-15T05:16:20;99033.97;;;0.29;100.00
75460;BME280;64039;53.060;9.342;2024-01-15T05:18:45;99030.50;;;0.27;100.00
75460;BME280;64039;53.060;9.342;2024-01-15T05:21:11;99035.66;;;0.29;100.00
75460;BME280;64039;53.060;9.342;2024-01-15T05:23:37;99021.38;;;0.36;100.00
75460;BME280;64039;53.060;9.342;2024-01-15T05:26:03;99041.75;;;0.33;100.00
75460;BME280;64039;53.060;9.342;2024-01-15T05:28:28;99050.19;;;0.30;100.00
75460;BME280;64039;53.060;9.342;2024-01-15T05:30:54;99051.22;;;0.35;100.00
75460;BME280;64039;53.060;9.342;2024-01-15T05:33:22;99047.03;;;0.37;100.00
75460;BME280;64039;53.060;9.342;2024-01-15T05:35:47;99044.66;;;0.43;100.00
75460;BME280;64039;53.060;9.342;2024-01-15T05:38:13;99044.78;;;0.46;100.00
75460;BME280;64039;53.060;9.342;2024-01-15T05:40:39;99035.31;;;0.44;100.00
75460;BME280;64039;53.060;9.342;2024-01-15T05:43:04;99039.34;;;0.37;100.00
75460;BME280;64039;53.060;9.342;2024-01-15T05:45:30;99041.94;;;0.39;100.00
75460;BME280;64039;53.060;9.342;2024-01-15T05:47:56;99052.19;;;0.39;100.00
75460;BME280;64039;53.060;9.342;2024-01-15T05:50:22;99050.59;;;0.42;100.00
75460;BME280;64039;53.060;9.342;2024-01-15T05:52:48;99051.38;;;0.40;100.00
75460;BME280;64039;53.060;9.342;2024-01-15T05:55:13;99051.88;;;0.29;100.00
75460;BME280;64039;53.060;9.342;2024-01-15T05:57:39;99054.16;;;0.46;100.00
75460;BME280;64039;53.060;9.342;2024-01-15T06:00:05;99048.00;;;0.41;100.00
75460;BME280;64039;53.060;9.342;2024-01-15T06:02:31;99038.53;;;0.38;100.00
75460;BME280;64039;53.060;9.342;2024-01-15T06:04:56;99036.94;;;0.42;100.00
75460;BME280;64039;53.060;9.342;2024-01-15T06:07:22;99043.44;;;0.32;100.00
75460;BME280;64039;53.060;9.342;2024-01-15T06:09:48;99047.91;;;0.38;100.00
75460;BME280;64039;53.060;9.342;2024-01-15T06:12:13;99035.50;;;0.24;100.00
75460;BME280;64039;53.060;9.342;2024-01-15T06:14:39;99038.22;;;0.29;100.00
75460;BME280;64039;53.060;9.342;2024-01-15T06:17:04;99041.50;;;0.25;100.00
75460;BME280;64039;53.060;9.342;2024-01-15T06:19:30;99040.47;;;0.20;100.00
75460;BME280;64039;53.060;9.342;2024-01-15T06:21:55;99036.31;;;0.23;100.00
75460;BME280;64039;53.060;9.342;2024-01-15T06:24:20;99035.78;;;0.32;100.00
75460;BME280;64039;53.060;9.342;2024-01-15T06:26:46;99036.28;;;0.22;100.00
75460;BME280;64039;53.060;9.342;2024-01-15T06:29:12;99038.06;;;0.24;100.00
75460;BME280;64039;53.060;9.342;2024-01-15T06:31:37;99047.59;;;0.28;100.00
75460;BME280;64039;53.060;9.342;2024-01-15T06:34:05;99050.63;;;0.17;100.00
75460;BME280;64039;53.060;9.342;2024-01-15T06:36:31;99057.56;;;0.21;100.00
75460;BME280;64039;53.060;9.342;2024-01-15T06:38:56;99059.34;;;0.23;100.00
75460;BME280;64039;53.060;9.342;2024-01-15T06:41:22;99045.69;;;0.23;100.00
75460;BME280;64039;53.060;9.342;2024-01-15T06:43:48;99056.88;;;0.25;100.00
75460;BME280;64039;53.060;9.342;2024-01-15T06:46:20;99048.13;;;0.20;100.00
75460;BME280;64039;53.060;9.342;2024-01-15T06:48:45;99046.47;;;0.20;100.00
75460;BME280;64039;53.060;9.342;2024-01-15T06:51:11;99040.31;;;0.15;100.00
75460;BME280;64039;53.060;9.342;2024-01-15T06:53:36;99043.84;;;0.19;100.00
75460;BME280;64039;53.060;9.342;2024-01-15T06:56:02;99044.13;;;0.02;100.00
75460;BME280;64039;53.060;9.342;2024-01-15T06:58:27;99051.97;;;0.07;100.00
75460;BME280;64039;53.060;9.342;2024-01-15T07:00:52;99054.22;;;0.23;100.00
75460;BME280;64039;53.060;9.342;2024-01-15T07:03:18;99039.00;;;0.26;100.00
75460;BME280;64039;53.060;9.342;2024-01-15T07:05:43;99051.59;;;0.20;100.00
75460;BME280;64039;53.060;9.342;2024-01-15T07:08:09;99051.78;;;0.26;100.00
75460;BME280;64039;53.060;9.342;2024-01-15T07:10:34;99045.34;;;0.12;100.00
75460;BME280;64039;53.060;9.342;2024-01-15T07:12:59;99051.44;;;0.15;100.00
75460;BME280;64039;53.060;9.342;2024-01-15T07:15:25;99048.63;;;0.09;100.00
75460;BME280;64039;53.060;9.342;2024-01-15T07:17:50;99058.88;;;0.09;100.00
75460;BME280;64039;53.060;9.342;2024-01-15T07:20:16;99053.16;;;0.17;100.00
75460;BME280;64039;53.060;9.342;2024-01-15T07:22:42;99053.06;;;0.13;100.00
75460;BME280;64039;53.060;9.342;2024-01-15T07:25:07;99047.16;;;0.16;100.00
75460;BME280;64039;53.060;9.342;2024-01-15T07:27:33;99058.22;;;0.15;100.00
75460;BME280;64039;53.060;9.342;2024-01-15T07:29:59;99071.91;;;0.15;100.00
75460;BME280;64039;53.060;9.342;2024-01-15T07:32:24;99062.72;;;0.22;100.00
75460;BME280;64039;53.060;9.342;2024-01-15T07:34:49;99063.50;;;0.20;100.00
75460;BME280;64039;53.060;9.342;2024-01-15T07:37:15;99053.06;;;0.13;100.00
75460;BME280;64039;53.060;9.342;2024-01-15T07:39:40;99065.13;;;0.18;100.00
75460;BME280;64039;53.060;9.342;2024-01-15T07:42:06;99085.44;;;0.13;100.00
75460;BME280;64039;53.060;9.342;2024-01-15T07:44:32;99087.41;;;0.20;100.00
75460;BME280;64039;53.060;9.342;2024-01-15T07:46:58;99087.63;;;0.26;100.00
75460;BME280;64039;53.060;9.342;2024-01-15T07:49:23;99092.44;;;0.19;100.00
75460;BME280;64039;53.060;9.342;2024-01-15T07:51:49;99096.59;;;0.15;100.00
75460;BME280;64039;53.060;9.342;2024-01-15T07:54:14;99112.28;;;0.00;100.00
75460;BME280;64039;53.060;9.342;2024-01-15T07:56:56;99106.41;;;0.03;100.00
75460;BME280;64039;53.060;9.342;2024-01-15T07:59:22;99112.22;;;-0.02;100.00
75460;BME280;64039;53.060;9.342;2024-01-15T08:01:48;99112.84;;;-0.07;100.00
75460;BME280;64039;53.060;9.342;2024-01-15T08:04:13;99102.59;;;-0.09;100.00
75460;BME280;64039;53.060;9.342;2024-01-15T08:06:39;99097.84;;;-0.22;100.00
75460;BME280;64039;53.060;9.342;2024-01-15T08:09:04;99094.41;;;-0.23;100.00
75460;BME280;64039;53.060;9.342;2024-01-15T08:11:30;99094.69;;;-0.15;100.00
75460;BME280;64039;53.060;9.342;2024-01-15T08:13:56;99096.47;;;-0.12;100.00
75460;BME280;64039;53.060;9.342;2024-01-15T08:16:21;99095.63;;;-0.13;100.00
75460;BME280;64039;53.060;9.342;2024-01-15T08:18:47;99093.38;;;-0.28;100.00
75460;BME280;64039;53.060;9.342;2024-01-15T08:21:13;99094.41;;;-0.23;100.00
75460;BME280;64039;53.060;9.342;2024-01-15T08:23:38;99105.72;;;-0.16;100.00
75460;BME280;64039;53.060;9.342;2024-01-15T08:26:04;99109.28;;;-0.12;100.00
75460;BME280;64039;53.060;9.342;2024-01-15T08:28:30;99107.16;;;0.00;100.00
75460;BME280;64039;53.060;9.342;2024-01-15T08:30:55;99110.38;;;-0.06;100.00
75460;BME280;64039;53.060;9.342;2024-01-15T08:33:21;99119.78;;;-0.05;100.00
75460;BME280;64039;53.060;9.342;2024-01-15T08:35:47;99122.88;;;-0.13;100.00
75460;BME280;64039;53.060;9.342;2024-01-15T08:38:12;99128.03;;;-0.12;100.00
75460;BME280;64039;53.060;9.342;2024-01-15T08:40:38;99127.00;;;-0.17;100.00
75460;BME280;64039;53.060;9.342;2024-01-15T08:43:03;99110.72;;;-0.19;100.00
75460;BME280;64039;53.060;9.342;2024-01-15T08:45:29;99139.81;;;-0.40;100.00
75460;BME280;64039;53.060;9.342;2024-01-15T08:47:54;99123.59;;;-0.40;100.00
75460;BME280;64039;53.060;9.342;2024-01-15T08:50:19;99140.91;;;-0.56;100.00
75460;BME280;64039;53.060;9.342;2024-01-15T08:52:45;99141.66;;;-0.58;100.00
75460;BME280;64039;53.060;9.342;2024-01-15T08:55:11;99135.16;;;-0.50;100.00
75460;BME280;64039;53.060;9.342;2024-01-15T08:57:38;99131.44;;;-0.58;100.00
75460;BME280;64039;53.060;9.342;2024-01-15T09:00:04;99140.13;;;-0.53;100.00
75460;BME280;64039;53.060;9.342;2024-01-15T09:02:34;99146.31;;;-0.48;100.00
75460;BME280;64039;53.060;9.342;2024-01-15T09:05:00;99150.09;;;-0.38;100.00
75460;BME280;64039;53.060;9.342;2024-01-15T09:07:25;99149.03;;;-0.43;100.00
75460;BME280;64039;53.060;9.342;2024-01-15T09:09:52;99139.19;;;-0.34;100.00
75460;BME280;64039;53.060;9.342;2024-01-15T09:12:18;99139.78;;;-0.17;100.00
75460;BME280;64039;53.060;9.342;2024-01-15T09:14:46;99146.78;;;-0.13;100.00
75460;BME280;64039;53.060;9.342;2024-01-15T09:17:12;99144.59;;;-0.25;100.00
75460;BME280;64039;53.060;9.342;2024-01-15T09:19:37;99153.03;;;-0.27;100.00
75460;BME280;64039;53.060;9.342;2024-01-15T09:22:05;99151.41;;;-0.25;100.00
75460;BME280;64039;53.060;9.342;2024-01-15T09:24:30;99144.59;;;-0.25;100.00
75460;BME280;64039;53.060;9.342;2024-01-15T09:26:56;99138.84;;;-0.19;100.00
75460;BME280;64039;53.060;9.342;2024-01-15T09:29:21;99136.25;;;-0.21;100.00
75460;BME280;64039;53.060;9.342;2024-01-15T09:31:49;99140.22;;;-0.29;100.00
75460;BME280;64039;53.060;9.342;2024-01-15T09:34:15;99142.75;;;-0.29;100.00
75460;BME280;64039;53.060;9.342;2024-01-15T09:36:41;99142.97;;;-0.23;100.00
75460;BME280;64039;53.060;9.342;2024-01-15T09:39:09;99124.56;;;-0.14;100.00
75460;BME280;64039;53.060;9.342;2024-01-15T09:41:39;99137.28;;;-0.16;100.00
75460;BME280;64039;53.060;9.342;2024-01-15T09:44:05;99135.81;;;-0.09;100.00
75460;BME280;64039;53.060;9.342;2024-01-15T09:46:33;99136.84;;;-0.04;100.00
75460;BME280;64039;53.060;9.342;2024-01-15T09:48:59;99140.56;;;0.05;100.00
75460;BME280;64039;53.060;9.342;2024-01-15T09:51:24;99148.75;;;0.19;100.00
75460;BME280;64039;53.060;9.342;2024-01-15T09:53:50;99136.00;;;-0.04;100.00
75460;BME280;64039;53.060;9.342;2024-01-15T09:56:16;99143.41;;;0.12;100.00
75460;BME280;64039;53.060;9.342;2024-01-15T09:58:42;99144.13;;;0.08;100.00
75460;BME280;64039;53.060;9.342;2024-01-15T10:01:08;99150.28;;;0.13;100.00
75460;BME280;64039;53.060;9.342;2024-01-15T10:03:34;99144.44;;;0.18;100.00
75460;BME280;64039;53.060;9.342;2024-01-15T10:06:00;99145.00;;;0.09;100.00
75460;BME280;64039;53.060;9.342;2024-01-15T10:08:25;99141.66;;;0.11;100.00
75460;BME280;64039;53.060;9.342;2024-01-15T10:10:51;99148.97;;;0.25;100.00
75460;BME280;64039;53.060;9.342;2024-01-15T10:13:17;99146.56;;;0.05;100.00
75460;BME280;64039;53.060;9.342;2024-01-15T10:15:45;99151.25;;;0.17;100.00
75460;BME280;64039;53.060;9.342;2024-01-15T10:18:12;99139.00;;;0.33;100.00
75460;BME280;64039;53.060;9.342;2024-01-15T10:20:39;99144.13;;;0.33;100.00
75460;BME280;64039;53.060;9.342;2024-01-15T10:23:05;99146.34;;;0.47;100.00
75460;BME280;64039;53.060;9.342;2024-01-15T10:25:30;99139.88;;;0.33;100.00
75460;BME280;64039;53.060;9.342;2024-01-15T10:28:03;99140.31;;;0.45;100.00
75460;BME280;64039;53.060;9.342;2024-01-15T10:30:29;99131.19;;;0.29;100.00
75460;BME280;64039;53.060;9.342;2024-01-15T10:33:03;99141.03;;;0.41;100.00
75460;BME280;64039;53.060;9.342;2024-01-15T10:35:29;99140.34;;;0.47;100.00
75460;BME280;64039;53.060;9.342;2024-01-15T10:37:55;99136.94;;;0.46;100.00
75460;BME280;64039;53.060;9.342;2024-01-15T10:40:21;99149.78;;;0.48;100.00
75460;BME280;64039;53.060;9.342;2024-01-15T10:42:46;99141.56;;;0.33;100.00
75460;BME280;64039;53.060;9.342;2024-01-15T10:45:13;99145.91;;;0.35;100.00
75460;BME280;64039;53.060;9.342;2024-01-15T10:47:40;99150.06;;;0.31;100.00
75460;BME280;64039;53.060;9.342;2024-01-15T10:50:07;99150.66;;;0.24;100.00
75460;BME280;64039;53.060;9.342;2024-01-15T10:52:36;99145.91;;;0.35;100.00
75460;BME280;64039;53.060;9.342;2024-01-15T10:55:03;99144.84;;;0.28;100.00
75460;BME280;64039;53.060;9.342;2024-01-15T10:57:30;99144.75;;;0.51;100.00
75460;BME280;64039;53.060;9.342;2024-01-15T10:59:55;99147.03;;;0.43;100.00
75460;BME280;64039;53.060;9.342;2024-01-15T11:02:21;99148.19;;;0.52;100.00
75460;BME280;64039;53.060;9.342;2024-01-15T11:04:47;99141.41;;;0.52;100.00
75460;BME280;64039;53.060;9.342;2024-01-15T11:07:27;99148.47;;;0.35;100.00
75460;BME280;64039;53.060;9.342;2024-01-15T11:09:54;99137.97;;;0.27;100.00
75460;BME280;64039;53.060;9.342;2024-01-15T11:12:20;99129.66;;;0.33;100.00
75460;BME280;64039;53.060;9.342;2024-01-15T11:14:47;99144.66;;;0.48;100.00
75460;BME280;64039;53.060;9.342;2024-01-15T11:17:13;99138.22;;;0.35;100.00
75460;BME280;64039;53.060;9.342;2024-01-15T11:25:03;99138.47;;;0.41;100.00
75460;BME280;64039;53.060;9.342;2024-01-15T11:27:42;99138.56;;;0.44;100.00
75460;BME280;64039;53.060;9.342;2024-01-15T11:30:08;99135.50;;;0.30;100.00
75460;BME280;64039;53.060;9.342;2024-01-15T11:32:35;99139.94;;;0.35;100.00
75460;BME280;64039;53.060;9.342;2024-01-15T11:35:01;99133.88;;;0.33;100.00
75460;BME280;64039;53.060;9.342;2024-01-15T11:37:29;99139.13;;;0.36;100.00
75460;BME280;64039;53.060;9.342;2024-01-15T11:40:17;99139.97;;;0.36;100.00
75460;BME280;64039;53.060;9.342;2024-01-15T11:42:44;99140.06;;;0.38;100.00
75460;BME280;64039;53.060;9.342;2024-01-15T11:45:11;99141.13;;;0.44;100.00
75460;BME280;64039;53.060;9.342;2024-01-15T11:48:13;99141.94;;;0.43;100.00
75460;BME280;64039;53.060;9.342;2024-01-15T11:50:49;99140.47;;;0.50;100.00
75460;BME280;64039;53.060;9.342;2024-01-15T11:53:27;99140.75;;;0.58;100.00
75460;BME280;64039;53.060;9.342;2024-01-15T11:55:58;99144.66;;;0.74;100.00
75460;BME280;64039;53.060;9.342;2024-01-15T11:58:23;99143.44;;;0.37;100.00
75460;BME280;64039;53.060;9.342;2024-01-15T12:00:52;99133.03;;;0.32;100.00
75460;BME280;64039;53.060;9.342;2024-01-15T12:03:22;99134.97;;;0.39;100.00
75460;BME280;64039;53.060;9.342;2024-01-15T12:05:48;99146.88;;;0.39;100.00
75460;BME280;64039;53.060;9.342;2024-01-15T12:08:13;99141.94;;;0.43;100.00
75460;BME280;64039;53.060;9.342;2024-01-15T12:10:40;99137.22;;;0.30;100.00
75460;BME280;64039;53.060;9.342;2024-01-15T12:13:09;99139.31;;;0.42;100.00
75460;BME280;64039;53.060;9.342;2024-01-15T12:15:35;99131.69;;;0.43;100.00
75460;BME280;64039;53.060;9.342;2024-01-15T12:18:02;99141.22;;;0.47;100.00
75460;BME280;64039;53.060;9.342;2024-01-15T12:20:29;99140.25;;;0.44;100.00
75460;BME280;64039;53.060;9.342;2024-01-15T12:22:55;99136.19;;;0.51;100.00
75460;BME280;64039;53.060;9.342;2024-01-15T12:25:24;99138.19;;;0.34;100.00
75460;BME280;64039;53.060;9.342;2024-01-15T12:27:51;99137.41;;;0.36;100.00
75460;BME280;64039;53.060;9.342;2024-01-15T12:30:16;99144.13;;;0.33;100.00
75460;BME280;64039;53.060;9.342;2024-01-15T12:32:42;99126.66;;;0.21;100.00
75460;BME280;64039;53.060;9.342;2024-01-15T12:35:09;99143.19;;;0.30;100.00
75460;BME280;64039;53.060;9.342;2024-01-15T12:37:36;99146.47;;;0.26;100.00
75460;BME280;64039;53.060;9.342;2024-01-15T12:40:03;99139.38;;;0.43;100.00
75460;BME280;64039;53.060;9.342;2024-01-15T12:42:29;99146.56;;;0.29;100.00
75460;BME280;64039;53.060;9.342;2024-01-15T12:44:58;99146.03;;;0.38;100.00
75460;BME280;64039;53.060;9.342;2024-01-15T12:47:23;99154.97;;;0.25;100.00
75460;BME280;64039;53.060;9.342;2024-01-15T12:49:51;99155.88;;;0.03;100.00
75460;BME280;64039;53.060;9.342;2024-01-15T12:52:19;99148.06;;;0.23;100.00
75460;BME280;64039;53.060;9.342;2024-01-15T12:54:47;99153.47;;;0.08;100.00
75460;BME280;64039;53.060;9.342;2024-01-15T12:57:13;99148.31;;;0.06;100.00